sensor_id;sensor_type;location;lat;lon;timestamp;pressure;altitude;pressure_sealevel;temperature;humidity
47556;BME280;33291;46.222;26.460;2023-07-31T00:01:32;96050.28;;;18.36;100.00
47556;BME280;33291;46.222;26.460;2023-07-31T00:03:57;96049.25;;;18.37;100.00
47556;BME280;33291;46.222;26.460;2023-07-31T00:06:23;96057.97;;;18.37;100.00
47556;BME280;33291;46.222;26.460;2023-07-31T00:08:48;96055.16;;;18.39;100.00
47556;BME280;33291;46.222;26.460;2023-07-31T00:11:14;96059.38;;;18.40;100.00
47556;BME280;33291;46.222;26.460;2023-07-31T00:13:39;96057.78;;;18.39;100.00
47556;BME280;33291;46.222;26.460;2023-07-31T00:16:05;96042.13;;;18.31;100.00
47556;BME280;33291;46.222;26.460;2023-07-31T00:18:30;96055.94;;;18.39;100.00
47556;BME280;33291;46.222;26.460;2023-07-31T00:20:55;96050.66;;;18.39;100.00
47556;BME280;33291;46.222;26.460;2023-07-31T00:23:21;96049.47;;;18.42;100.00
47556;BME280;33291;46.222;26.460;2023-07-31T00:25:46;96048.03;;;18.39;100.00
47556;BME280;33291;46.222;26.460;2023-07-31T00:28:12;96046.41;;;18.38;100.00
47556;BME280;33291;46.222;26.460;2023-07-31T00:30:37;96036.88;;;18.37;100.00
47556;BME280;33291;46.222;26.460;2023-07-31T00:33:03;96043.75;;;18.32;100.00
47556;BME280;33291;46.222;26.460;2023-07-31T00:35:28;96038.88;;;18.28;100.00
47556;BME280;33291;46.222;26.460;2023-07-31T00:37:54;96034.00;;;18.25;100.00
47556;BME280;33291;46.222;26.460;2023-07-31T00:40:19;96030.34;;;18.26;100.00
47556;BME280;33291;46.222;26.460;2023-07-31T00:42:44;96021.44;;;18.27;100.00
47556;BME280;33291;46.222;26.460;2023-07-31T00:45:10;96019.19;;;18.24;100.00
47556;BME280;33291;46.222;26.460;2023-07-31T00:47:35;96021.44;;;18.27;100.00
47556;BME280;33291;46.222;26.460;2023-07-31T00:50:01;96003.78;;;18.15;100.00
47556;BME280;33291;46.222;26.460;2023-07-31T00:52:26;96011.28;;;18.24;100.00
47556;BME280;33291;46.222;26.460;2023-07-31T00:54:52;96005.56;;;18.14;100.00
47556;BME280;33291;46.222;26.460;2023-07-31T00:57:18;95997.25;;;18.10;100.00
47556;BME280;33291;46.222;26.460;2023-07-31T00:59:43;96000.69;;;18.11;100.00
47556;BME280;33291;46.222;26.460;2023-07-31T01:02:09;95987.91;;;18.01;100.00
47556;BME280;33291;46.222;26.460;2023-07-31T01:04:35;95980.59;;;17.97;100.00
47556;BME280;33291;46.222;26.460;2023-07-31T01:12:03;95974.34;;;17.98;100.00
47556;BME280;33291;46.222;26.460;2023-07-31T01:14:29;95981.00;;;18.00;100.00
47556;BME280;33291;46.222;26.460;2023-07-31T01:16:54;95955.81;;;17.84;100.00
47556;BME280;33291;46.222;26.460;2023-07-31T01:19:24;95995.00;;;18.01;100.00
47556;BME280;33291;46.222;26.460;2023-07-31T01:24:30;95981.22;;;17.99;100.00
47556;BME280;33291;46.222;26.460;2023-07-31T01:27:12;95996.22;;;18.05;100.00
47556;BME280;33291;46.222;26.460;2023-07-31T01:32:11;95994.63;;;18.04;100.00
47556;BME280;33291;46.222;26.460;2023-07-31T01:34:39;95998.66;;;18.00;100.00
47556;BME280;33291;46.222;26.460;2023-07-31T01:37:06;96000.69;;;17.98;100.00
47556;BME280;33291;46.222;26.460;2023-07-31T01:39:31;96005.91;;;17.91;100.00
47556;BME280;33291;46.222;26.460;2023-07-31T01:41:57;96002.69;;;17.96;100.00
47556;BME280;33291;46.222;26.460;2023-07-31T01:44:22;95997.22;;;17.97;100.00
47556;BME280;33291;46.222;26.460;2023-07-31T01:46:48;95999.44;;;17.93;100.00
47556;BME280;33291;46.222;26.460;2023-07-31T01:49:13;96007.53;;;17.92;100.00
47556;BME280;33291;46.222;26.460;2023-07-31T01:51:39;96007.34;;;17.93;100.00
47556;BME280;33291;46.222;26.460;2023-07-31T01:54:04;96007.75;;;17.97;100.00
47556;BME280;33291;46.222;26.460;2023-07-31T01:56:30;96009.19;;;18.00;100.00
47556;BME280;33291;46.222;26.460;2023-07-31T01:58:55;96003.13;;;17.99;100.00
47556;BME280;33291;46.222;26.460;2023-07-31T02:01:21;96005.56;;;18.01;100.00
47556;BME280;33291;46.222;26.460;2023-07-31T02:03:46;96017.69;;;18.02;100.00
47556;BME280;33291;46.222;26.460;2023-07-31T02:06:12;96021.16;;;18.02;100.00
47556;BME280;33291;46.222;26.460;2023-07-31T02:08:37;96011.81;;;18.00;100.00
47556;BME280;33291;46.222;26.460;2023-07-31T02:11:03;96021.97;;;18.03;100.00
47556;BME280;33291;46.222;26.460;2023-07-31T02:13:28;96007.16;;;17.95;100.00
47556;BME280;33291;46.222;26.460;2023-07-31T02:15:54;96010.19;;;17.99;100.00
47556;BME280;33291;46.222;26.460;2023-07-31T02:18:19;96007.06;;;17.88;100.00
47556;BME280;33291;46.222;26.460;2023-07-31T02:20:51;96019.22;;;17.83;100.00
47556;BME280;33291;46.222;26.460;2023-07-31T02:23:18;96021.41;;;17.72;100.00
47556;BME280;33291;46.222;26.460;2023-07-31T02:25:44;96016.28;;;17.64;100.00
47556;BME280;33291;46.222;26.460;2023-07-31T02:28:09;96023.63;;;17.69;100.00
47556;BME280;33291;46.222;26.460;2023-07-31T02:30:35;96035.38;;;17.73;100.00
47556;BME280;33291;46.222;26.460;2023-07-31T02:33:00;96029.72;;;17.76;100.00
47556;BME280;33291;46.222;26.460;2023-07-31T02:35:26;96020.41;;;17.73;100.00
47556;BME280;33291;46.222;26.460;2023-07-31T02:37:51;96030.56;;;17.83;100.00
47556;BME280;33291;46.222;26.460;2023-07-31T02:40:17;96031.19;;;17.85;100.00
47556;BME280;33291;46.222;26.460;2023-07-31T02:42:42;96029.31;;;17.79;100.00
47556;BME280;33291;46.222;26.460;2023-07-31T02:45:08;96028.72;;;17.77;100.00
47556;BME280;33291;46.222;26.460;2023-07-31T02:47:34;96021.00;;;17.75;100.00
47556;BME280;33291;46.222;26.460;2023-07-31T02:49:59;96041.31;;;17.82;100.00
47556;BME280;33291;46.222;26.460;2023-07-31T02:52:25;96041.91;;;17.84;100.00
47556;BME280;33291;46.222;26.460;2023-07-31T02:54:51;96046.00;;;17.86;100.00
47556;BME280;33291;46.222;26.460;2023-07-31T02:57:16;96035.84;;;17.83;100.00
47556;BME280;33291;46.222;26.460;2023-07-31T02:59:41;96050.91;;;17.89;100.00
47556;BME280;33291;46.222;26.460;2023-07-31T03:02:07;96056.16;;;17.89;100.00
47556;BME280;33291;46.222;26.460;2023-07-31T03:04:32;96049.63;;;17.85;100.00
47556;BME280;33291;46.222;26.460;2023-07-31T03:06:58;96043.78;;;17.90;100.00
47556;BME280;33291;46.222;26.460;2023-07-31T03:09:23;96042.00;;;17.90;100.00
47556;BME280;33291;46.222;26.460;2023-07-31T03:11:49;96044.63;;;17.90;100.00
47556;BME280;33291;46.222;26.460;2023-07-31T03:14:14;96052.34;;;17.92;100.00
47556;BME280;33291;46.222;26.460;2023-07-31T03:16:40;96045.19;;;17.86;100.00
47556;BME280;33291;46.222;26.460;2023-07-31T03:19:05;96051.25;;;17.80;100.00
47556;BME280;33291;46.222;26.460;2023-07-31T03:21:30;96042.88;;;17.76;100.00
47556;BME280;33291;46.222;26.460;2023-07-31T03:23:56;96055.28;;;17.82;100.00
47556;BME280;33291;46.222;26.460;2023-07-31T03:26:21;96062.19;;;17.83;100.00
47556;BME280;33291;46.222;26.460;2023-07-31T03:28:47;96061.00;;;17.86;100.00
47556;BME280;33291;46.222;26.460;2023-07-31T03:31:12;96055.53;;;17.87;100.00
47556;BME280;33291;46.222;26.460;2023-07-31T03:33:38;96041.91;;;17.84;100.00
47556;BME280;33291;46.222;26.460;2023-07-31T03:36:04;96054.13;;;17.91;100.00
47556;BME280;33291;46.222;26.460;2023-07-31T03:38:29;96056.56;;;17.93;100.00
47556;BME280;33291;46.222;26.460;2023-07-31T03:40:55;96052.75;;;17.96;100.00
47556;BME280;33291;46.222;26.460;2023-07-31T03:43:20;96050.91;;;17.96;100.00
47556;BME280;33291;46.222;26.460;2023-07-31T03:45:46;96043.22;;;17.94;100.00
47556;BME280;33291;46.222;26.460;2023-07-31T03:48:11;96049.72;;;17.99;100.00
47556;BME280;33291;46.222;26.460;2023-07-31T03:50:37;96046.28;;;17.98;100.00
47556;BME280;33291;46.222;26.460;2023-07-31T03:53:02;96051.34;;;18.00;100.00
47556;BME280;33291;46.222;26.460;2023-07-31T03:55:27;96028.94;;;17.82;100.00
47556;BME280;33291;46.222;26.460;2023-07-31T03:57:53;96056.81;;;17.98;100.00
47556;BME280;33291;46.222;26.460;2023-07-31T04:00:18;96052.75;;;17.96;100.00
47556;BME280;33291;46.222;26.460;2023-07-31T04:02:44;96055.38;;;17.96;100.00
47556;BME280;33291;46.222;26.460;2023-07-31T04:05:09;96055.97;;;17.91;100.00
47556;BME280;33291;46.222;26.460;2023-07-31T04:07:36;96058.97;;;17.88;100.00
47556;BME280;33291;46.222;26.460;2023-07-31T04:10:01;96055.09;;;17.84;100.00
47556;BME280;33291;46.222;26.460;2023-07-31T04:12:27;96058.97;;;17.88;100.00
47556;BME280;33291;46.222;26.460;2023-07-31T04:14:52;96056.53;;;17.86;100.00
47556;BME280;33291;46.222;26.460;2023-07-31T04:17:18;96052.91;;;17.87;100.00
47556;BME280;33291;46.222;26.460;2023-07-31T04:19:43;96044.34;;;17.85;100.00
47556;BME280;33291;46.222;26.460;2023-07-31T04:22:09;96049.81;;;17.84;100.00
47556;BME280;33291;46.222;26.460;2023-07-31T04:24:34;96048.22;;;17.83;100.00
47556;BME280;33291;46.222;26.460;2023-07-31T04:27:00;96049.00;;;17.83;100.00
47556;BME280;33291;46.222;26.460;2023-07-31T04:29:25;96041.09;;;17.83;100.00
47556;BME280;33291;46.222;26.460;2023-07-31T04:31:51;96040.50;;;17.81;100.00
47556;BME280;33291;46.222;26.460;2023-07-31T04:34:16;96042.69;;;17.71;100.00
47556;BME280;33291;46.222;26.460;2023-07-31T04:36:42;96052.22;;;17.72;100.00
47556;BME280;33291;46.222;26.460;2023-07-31T04:39:07;96053.00;;;17.72;100.00
47556;BME280;33291;46.222;26.460;2023-07-31T04:41:32;96056.06;;;17.76;100.00
47556;BME280;33291;46.222;26.460;2023-07-31T04:43:58;96056.69;;;17.78;100.00
47556;BME280;33291;46.222;26.460;2023-07-31T04:46:23;96057.91;;;17.82;100.00
47556;BME280;33291;46.222;26.460;2023-07-31T04:48:49;96060.16;;;17.85;100.00
47556;BME280;33291;46.222;26.460;2023-07-31T04:51:14;96038.66;;;17.75;100.00
47556;BME280;33291;46.222;26.460;2023-07-31T04:53:40;96058.97;;;17.88;100.00
47556;BME280;33291;46.222;26.460;2023-07-31T04:56:05;96058.16;;;17.87;100.00
47556;BME280;33291;46.222;26.460;2023-07-31T04:58:31;96062.03;;;17.91;100.00
47556;BME280;33291;46.222;26.460;2023-07-31T05:00:56;96061.03;;;17.92;100.00
47556;BME280;33291;46.222;26.460;2023-07-31T05:03:22;96061.28;;;17.98;100.00
47556;BME280;33291;46.222;26.460;2023-07-31T05:05:47;96063.94;;;18.04;100.00
47556;BME280;33291;46.222;26.460;2023-07-31T05:08:13;96062.75;;;18.07;100.00
47556;BME280;33291;46.222;26.460;2023-07-31T05:10:38;96056.03;;;18.04;100.00
47556;BME280;33291;46.222;26.460;2023-07-31T05:13:03;96061.50;;;18.09;100.00
47556;BME280;33291;46.222;26.460;2023-07-31T05:15:29;96057.88;;;18.04;100.00
47556;BME280;33291;46.222;26.460;2023-07-31T05:17:55;96065.38;;;18.07;100.00
47556;BME280;33291;46.222;26.460;2023-07-31T05:20:21;96070.84;;;18.05;100.00
47556;BME280;33291;46.222;26.460;2023-07-31T05:22:46;96073.28;;;18.07;100.00
47556;BME280;33291;46.222;26.460;2023-07-31T05:25:12;96082.00;;;18.07;100.00
47556;BME280;33291;46.222;26.460;2023-07-31T05:27:37;96082.59;;;18.09;100.00
47556;BME280;33291;46.222;26.460;2023-07-31T05:30:03;96069.22;;;18.11;100.00
47556;BME280;33291;46.222;26.460;2023-07-31T05:32:29;96075.13;;;18.13;100.00
47556;BME280;33291;46.222;26.460;2023-07-31T05:34:54;96075.75;;;18.15;100.00
47556;BME280;33291;46.222;26.460;2023-07-31T05:37:20;96074.75;;;18.16;100.00
47556;BME280;33291;46.222;26.460;2023-07-31T05:39:45;96077.38;;;18.16;100.00
47556;BME280;33291;46.222;26.460;2023-07-31T05:42:11;96073.28;;;18.14;100.00
47556;BME280;33291;46.222;26.460;2023-07-31T05:44:36;96083.84;;;18.20;100.00
47556;BME280;33291;46.222;26.460;2023-07-31T05:47:02;96084.88;;;18.19;100.00
47556;BME280;33291;46.222;26.460;2023-07-31T05:49:27;96080.22;;;18.21;100.00
47556;BME280;33291;46.222;26.460;2023-07-31T05:51:53;96092.41;;;18.22;100.00
47556;BME280;33291;46.222;26.460;2023-07-31T05:54:18;96093.00;;;18.24;100.00
47556;BME280;33291;46.222;26.460;2023-07-31T05:56:44;96090.56;;;18.23;100.00
47556;BME280;33291;46.222;26.460;2023-07-31T05:59:12;96100.13;;;18.31;100.00
47556;BME280;33291;46.222;26.460;2023-07-31T06:01:37;96094.47;;;18.34;100.00
47556;BME280;33291;46.222;26.460;2023-07-31T06:04:03;96084.31;;;18.31;100.00
47556;BME280;33291;46.222;26.460;2023-07-31T06:06:29;96101.38;;;18.35;100.00
47556;BME280;33291;46.222;26.460;2023-07-31T06:08:54;96099.72;;;18.34;100.00
47556;BME280;33291;46.222;26.460;2023-07-31T06:11:20;96101.97;;;18.37;100.00
47556;BME280;33291;46.222;26.460;2023-07-31T06:13:46;96107.47;;;18.42;100.00
47556;BME280;33291;46.222;26.460;2023-07-31T06:16:13;96107.09;;;18.45;100.00
47556;BME280;33291;46.222;26.460;2023-07-31T06:18:39;96108.69;;;18.46;100.00
47556;BME280;33291;46.222;26.460;2023-07-31T06:21:04;96103.03;;;18.49;100.00
47556;BME280;33291;46.222;26.460;2023-07-31T06:23:29;96110.53;;;18.52;100.00
47556;BME280;33291;46.222;26.460;2023-07-31T06:25:55;96075.19;;;18.33;100.00
47556;BME280;33291;46.222;26.460;2023-07-31T06:28:20;96115.22;;;18.57;100.00
47556;BME280;33291;46.222;26.460;2023-07-31T06:30:46;96099.59;;;18.55;100.00
47556;BME280;33291;46.222;26.460;2023-07-31T06:33:12;96102.47;;;18.60;100.00
47556;BME280;33291;46.222;26.460;2023-07-31T06:35:37;96102.47;;;18.60;100.00
47556;BME280;33291;46.222;26.460;2023-07-31T06:38:03;96109.56;;;18.67;100.00
47556;BME280;33291;46.222;26.460;2023-07-31T06:40:29;96117.28;;;18.68;100.00
47556;BME280;33291;46.222;26.460;2023-07-31T06:42:55;96114.44;;;18.70;100.00
47556;BME280;33291;46.222;26.460;2023-07-31T06:45:20;96118.53;;;18.72;100.00
47556;BME280;33291;46.222;26.460;2023-07-31T06:47:47;96114.44;;;18.70;100.00
47556;BME280;33291;46.222;26.460;2023-07-31T06:50:12;96114.06;;;18.73;100.00
47556;BME280;33291;46.222;26.460;2023-07-31T06:52:38;96117.94;;;18.77;100.00
47556;BME280;33291;46.222;26.460;2023-07-31T06:55:26;96109.19;;;18.76;100.00
47556;BME280;33291;46.222;26.460;2023-07-31T06:57:52;96108.97;;;18.78;100.00
47556;BME280;33291;46.222;26.460;2023-07-31T07:00:19;96115.28;;;18.77;100.00
47556;BME280;33291;46.222;26.460;2023-07-31T07:02:45;96109.78;;;18.72;100.00
47556;BME280;33291;46.222;26.460;2023-07-31T07:05:12;96123.59;;;18.80;100.00
47556;BME280;33291;46.222;26.460;2023-07-31T07:07:38;96106.97;;;18.80;100.00
47556;BME280;33291;46.222;26.460;2023-07-31T07:10:04;96110.44;;;18.87;100.00
47556;BME280;33291;46.222;26.460;2023-07-31T07:12:31;96119.00;;;18.89;100.00
47556;BME280;33291;46.222;26.460;2023-07-31T07:14:57;96125.88;;;18.90;100.00
47556;BME280;33291;46.222;26.460;2023-07-31T07:17:23;96120.22;;;18.93;100.00
47556;BME280;33291;46.222;26.460;2023-07-31T07:19:49;96113.91;;;18.88;100.00
47556;BME280;33291;46.222;26.460;2023-07-31T07:22:14;96118.59;;;18.92;100.00
47556;BME280;33291;46.222;26.460;2023-07-31T07:24:40;96118.59;;;18.92;100.00
47556;BME280;33291;46.222;26.460;2023-07-31T07:27:06;96112.31;;;18.93;100.00
47556;BME280;33291;46.222;26.460;2023-07-31T07:29:31;96123.88;;;18.99;100.00
47556;BME280;33291;46.222;26.460;2023-07-31T07:31:57;96130.78;;;19.00;100.00
47556;BME280;33291;46.222;26.460;2023-07-31T07:34:25;96125.50;;;19.00;100.00
47556;BME280;33291;46.222;26.460;2023-07-31T07:36:51;96126.31;;;19.00;100.00
47556;BME280;33291;46.222;26.460;2023-07-31T07:39:16;96138.50;;;19.02;100.00
47556;BME280;33291;46.222;26.460;2023-07-31T07:41:42;96136.88;;;19.00;100.00
47556;BME280;33291;46.222;26.460;2023-07-31T07:44:08;96136.25;;;18.98;100.00
47556;BME280;33291;46.222;26.460;2023-07-31T07:46:33;96145.41;;;19.03;100.00
47556;BME280;33291;46.222;26.460;2023-07-31T07:48:59;96139.31;;;19.02;100.00
47556;BME280;33291;46.222;26.460;2023-07-31T07:51:24;96136.47;;;18.97;100.00
47556;BME280;33291;46.222;26.460;2023-07-31T07:53:50;96147.41;;;19.00;100.00
47556;BME280;33291;46.222;26.460;2023-07-31T07:56:15;96154.72;;;18.98;100.00
47556;BME280;33291;46.222;26.460;2023-07-31T07:58:41;96143.75;;;18.88;100.00
47556;BME280;33291;46.222;26.460;2023-07-31T08:01:06;96159.19;;;18.91;100.00
47556;BME280;33291;46.222;26.460;2023-07-31T08:03:32;96166.91;;;18.93;100.00
47556;BME280;33291;46.222;26.460;2023-07-31T08:06:01;96150.66;;;18.89;100.00
47556;BME280;33291;46.222;26.460;2023-07-31T08:08:27;96160.63;;;18.94;100.00
47556;BME280;33291;46.222;26.460;2023-07-31T08:10:53;96156.97;;;18.95;100.00
47556;BME280;33291;46.222;26.460;2023-07-31T08:13:18;96159.81;;;18.93;100.00
47556;BME280;33291;46.222;26.460;2023-07-31T08:15:44;96153.50;;;18.94;100.00
47556;BME280;33291;46.222;26.460;2023-07-31T08:18:10;96154.09;;;18.90;100.00
47556;BME280;33291;46.222;26.460;2023-07-31T08:20:36;96153.69;;;18.86;100.00
47556;BME280;33291;46.222;26.460;2023-07-31T08:23:02;96161.16;;;18.82;100.00
47556;BME280;33291;46.222;26.460;2023-07-31T08:25:28;96150.19;;;18.79;100.00
47556;BME280;33291;46.222;26.460;2023-07-31T08:27:53;96161.16;;;18.82;100.00
47556;BME280;33291;46.222;26.460;2023-07-31T08:30:19;96157.72;;;18.82;100.00
47556;BME280;33291;46.222;26.460;2023-07-31T08:32:45;96166.44;;;18.82;100.00
47556;BME280;33291;46.222;26.460;2023-07-31T08:35:10;96163.59;;;18.84;100.00
47556;BME280;33291;46.222;26.460;2023-07-31T08:37:37;96164.25;;;18.86;100.00
47556;BME280;33291;46.222;26.460;2023-07-31T08:40:03;96170.53;;;18.85;100.00
47556;BME280;33291;46.222;26.460;2023-07-31T08:42:29;96168.50;;;18.87;100.00
47556;BME280;33291;46.222;26.460;2023-07-31T08:44:55;96170.13;;;18.88;100.00
47556;BME280;33291;46.222;26.460;2023-07-31T08:47:21;96177.84;;;18.90;100.00
47556;BME280;33291;46.222;26.460;2023-07-31T08:49:48;96174.22;;;18.91;100.00
47556;BME280;33291;46.222;26.460;2023-07-31T08:52:14;96171.78;;;18.89;100.00
47556;BME280;33291;46.222;26.460;2023-07-31T08:54:40;96177.25;;;18.88;100.00
47556;BME280;33291;46.222;26.460;2023-07-31T08:57:07;96180.28;;;18.91;100.00
47556;BME280;33291;46.222;26.460;2023-07-31T08:59:34;96192.09;;;18.95;100.00
47556;BME280;33291;46.222;26.460;2023-07-31T09:02:05;96170.78;;;18.97;100.00
47556;BME280;33291;46.222;26.460;2023-07-31T09:04:32;96169.78;;;18.98;100.00
47556;BME280;33291;46.222;26.460;2023-07-31T09:07:01;96170.16;;;18.95;100.00
47556;BME280;33291;46.222;26.460;2023-07-31T09:09:29;96177.47;;;18.99;100.00
47556;BME280;33291;46.222;26.460;2023-07-31T09:11:54;96187.59;;;18.96;100.00
47556;BME280;33291;46.222;26.460;2023-07-31T09:14:21;96176.66;;;18.92;100.00
47556;BME280;33291;46.222;26.460;2023-07-31T09:16:56;96181.31;;;18.97;100.00
47556;BME280;33291;46.222;26.460;2023-07-31T09:19:33;96183.16;;;18.96;100.00
47556;BME280;33291;46.222;26.460;2023-07-31T09:21:59;96179.50;;;18.97;100.00
47556;BME280;33291;46.222;26.460;2023-07-31T09:24:29;96180.53;;;18.96;100.00
47556;BME280;33291;46.222;26.460;2023-07-31T09:26:56;96179.50;;;18.97;100.00
47556;BME280;33291;46.222;26.460;2023-07-31T09:29:22;96182.97;;;18.98;100.00
47556;BME280;33291;46.222;26.460;2023-07-31T09:31:48;96174.22;;;18.97;100.00
47556;BME280;33291;46.222;26.460;2023-07-31T09:34:14;96179.50;;;18.97;100.00
47556;BME280;33291;46.222;26.460;2023-07-31T09:36:41;96181.13;;;18.98;100.00
47556;BME280;33291;46.222;26.460;2023-07-31T09:39:09;96173.41;;;18.97;100.00
47556;BME280;33291;46.222;26.460;2023-07-31T09:41:43;96169.97;;;18.96;100.00
47556;BME280;33291;46.222;26.460;2023-07-31T09:44:09;96180.72;;;19.02;100.00
47556;BME280;33291;46.222;26.460;2023-07-31T09:46:36;96178.09;;;19.02;100.00
47556;BME280;33291;46.222;26.460;2023-07-31T09:49:10;96173.22;;;18.98;100.00
47556;BME280;33291;46.222;26.460;2023-07-31T09:51:37;96182.97;;;19.05;100.00
47556;BME280;33291;46.222;26.460;2023-07-31T09:54:16;96170.56;;;18.98;100.00
47556;BME280;33291;46.222;26.460;2023-07-31T09:56:44;96182.16;;;19.04;100.00
47556;BME280;33291;46.222;26.460;2023-07-31T09:59:15;96183.75;;;18.98;100.00
47556;BME280;33291;46.222;26.460;2023-07-31T10:01:42;96175.00;;;18.91;100.00
47556;BME280;33291;46.222;26.460;2023-07-31T10:04:09;96186.81;;;18.95;100.00
47556;BME280;33291;46.222;26.460;2023-07-31T10:06:36;96180.28;;;18.91;100.00
47556;BME280;33291;46.222;26.460;2023-07-31T10:09:09;96191.47;;;18.93;100.00
47556;BME280;33291;46.222;26.460;2023-07-31T10:11:51;96193.09;;;18.94;100.00
47556;BME280;33291;46.222;26.460;2023-07-31T10:14:19;96192.09;;;18.95;100.00
47556;BME280;33291;46.222;26.460;2023-07-31T10:16:45;96195.31;;;18.97;100.00
47556;BME280;33291;46.222;26.460;2023-07-31T10:19:10;96196.97;;;18.98;100.00
47556;BME280;33291;46.222;26.460;2023-07-31T10:21:37;96203.88;;;18.99;100.00
47556;BME280;33291;46.222;26.460;2023-07-31T10:24:04;96200.22;;;19.00;100.00
47556;BME280;33291;46.222;26.460;2023-07-31T10:26:31;96194.13;;;19.00;100.00
47556;BME280;33291;46.222;26.460;2023-07-31T10:28:58;96194.53;;;18.97;100.00
47556;BME280;33291;46.222;26.460;2023-07-31T10:31:26;96202.25;;;18.98;100.00
47556;BME280;33291;46.222;26.460;2023-07-31T10:33:53;96199.59;;;18.98;100.00
47556;BME280;33291;46.222;26.460;2023-07-31T10:36:19;96206.53;;;18.99;100.00
47556;BME280;33291;46.222;26.460;2023-07-31T10:38:48;96202.84;;;19.00;100.00
47556;BME280;33291;46.222;26.460;2023-07-31T10:41:14;96205.28;;;19.02;100.00
47556;BME280;33291;46.222;26.460;2023-07-31T10:43:40;96189.84;;;18.92;100.00
47556;BME280;33291;46.222;26.460;2023-07-31T10:46:11;96198.75;;;18.91;100.00
47556;BME280;33291;46.222;26.460;2023-07-31T10:48:38;96201.00;;;18.94;100.00
47556;BME280;33291;46.222;26.460;2023-07-31T10:51:09;96201.00;;;18.94;100.00
47556;BME280;33291;46.222;26.460;2023-07-31T10:53:35;96200.41;;;18.92;100.00
47556;BME280;33291;46.222;26.460;2023-07-31T10:56:03;96197.31;;;18.89;100.00
47556;BME280;33291;46.222;26.460;2023-07-31T10:58:29;96200.16;;;18.87;100.00
47556;BME280;33291;46.222;26.460;2023-07-31T11:00:58;96197.47;;;18.80;100.00
47556;BME280;33291;46.222;26.460;2023-07-31T11:03:43;96197.69;;;18.79;100.00
47556;BME280;33291;46.222;26.460;2023-07-31T11:06:10;96187.13;;;18.72;100.00
47556;BME280;33291;46.222;26.460;2023-07-31T11:08:41;96199.72;;;18.77;100.00
47556;BME280;33291;46.222;26.460;2023-07-31T11:11:09;96199.31;;;18.80;100.00
47556;BME280;33291;46.222;26.460;2023-07-31T11:13:45;96194.84;;;18.80;100.00
47556;BME280;33291;46.222;26.460;2023-07-31T11:16:14;96191.81;;;18.77;100.00
47556;BME280;33291;46.222;26.460;2023-07-31T11:18:41;96199.13;;;18.81;100.00
47556;BME280;33291;46.222;26.460;2023-07-31T11:21:08;96187.34;;;18.84;100.00
47556;BME280;33291;46.222;26.460;2023-07-31T11:23:36;96185.53;;;18.85;100.00
47556;BME280;33291;46.222;26.460;2023-07-31T11:26:02;96181.47;;;18.82;100.00
47556;BME280;33291;46.222;26.460;2023-07-31T11:28:34;96180.28;;;18.91;100.00
47556;BME280;33291;46.222;26.460;2023-07-31T11:31:01;96181.53;;;18.95;100.00
47556;BME280;33291;46.222;26.460;2023-07-31T11:33:27;96175.84;;;18.92;100.00
47556;BME280;33291;46.222;26.460;2023-07-31T11:35:52;96169.34;;;18.94;100.00
47556;BME280;33291;46.222;26.460;2023-07-31T11:38:22;96179.09;;;19.00;100.00
47556;BME280;33291;46.222;26.460;2023-07-31T11:40:52;96177.28;;;19.01;100.00
47556;BME280;33291;46.222;26.460;2023-07-31T11:43:18;96175.44;;;19.02;100.00
47556;BME280;33291;46.222;26.460;2023-07-31T11:45:48;96166.53;;;19.03;100.00
47556;BME280;33291;46.222;26.460;2023-07-31T11:48:26;96173.66;;;19.09;99.37
47556;BME280;33291;46.222;26.460;2023-07-31T11:50:54;96167.13;;;19.11;99.01
47556;BME280;33291;46.222;26.460;2023-07-31T11:53:25;96167.16;;;19.18;98.60
47556;BME280;33291;46.222;26.460;2023-07-31T11:55:52;96163.72;;;19.24;97.68
47556;BME280;33291;46.222;26.460;2023-07-31T11:58:18;96161.06;;;19.31;97.76
47556;BME280;33291;46.222;26.460;2023-07-31T12:00:44;96152.34;;;19.30;97.27
47556;BME280;33291;46.222;26.460;2023-07-31T12:03:10;96154.75;;;19.39;96.00
47556;BME280;33291;46.222;26.460;2023-07-31T12:05:37;96145.25;;;19.38;94.07
47556;BME280;33291;46.222;26.460;2023-07-31T12:08:09;96155.59;;;19.46;93.75
47556;BME280;33291;46.222;26.460;2023-07-31T12:10:34;96158.03;;;19.47;92.92
47556;BME280;33291;46.222;26.460;2023-07-31T12:13:03;96156.81;;;19.50;93.03
47556;BME280;33291;46.222;26.460;2023-07-31T12:15:36;96157.41;;;19.52;93.65
47556;BME280;33291;46.222;26.460;2023-07-31T12:18:06;96162.69;;;19.52;93.49
47556;BME280;33291;46.222;26.460;2023-07-31T12:20:32;96157.63;;;19.50;93.71
47556;BME280;33291;46.222;26.460;2023-07-31T12:22:59;96155.19;;;19.49;93.94
47556;BME280;33291;46.222;26.460;2023-07-31T12:25:33;96155.97;;;19.49;95.72
47556;BME280;33291;46.222;26.460;2023-07-31T12:28:06;96153.53;;;19.48;97.26
47556;BME280;33291;46.222;26.460;2023-07-31T12:30:38;96150.50;;;19.51;99.71
47556;BME280;33291;46.222;26.460;2023-07-31T12:33:06;96140.75;;;19.51;100.00
47556;BME280;33291;46.222;26.460;2023-07-31T12:35:36;96130.81;;;19.47;100.00
47556;BME280;33291;46.222;26.460;2023-07-31T12:38:02;96124.50;;;19.41;100.00
47556;BME280;33291;46.222;26.460;2023-07-31T12:40:28;96130.00;;;19.40;100.00
47556;BME280;33291;46.222;26.460;2023-07-31T12:42:53;96143.38;;;19.45;100.00
47556;BME280;33291;46.222;26.460;2023-07-31T12:45:19;96136.50;;;19.44;100.00
47556;BME280;33291;46.222;26.460;2023-07-31T12:47:46;96132.22;;;19.43;100.00